sensor_id;sensor_type;location;lat;lon;timestamp;P1;durP1;ratioP1;P2;durP2;ratioP2
66542;SDS011;53395;37.360;-122.046;2023-04-24T00:01:44;1.73;;;0.55;;
66542;SDS011;53395;37.360;-122.046;2023-04-24T00:04:09;2.30;;;0.43;;
66542;SDS011;53395;37.360;-122.046;2023-04-24T00:06:39;1.42;;;0.40;;
66542;SDS011;53395;37.360;-122.046;2023-04-24T00:09:08;2.00;;;0.30;;
66542;SDS011;53395;37.360;-122.046;2023-04-24T00:11:35;1.35;;;0.50;;
66542;SDS011;53395;37.360;-122.046;2023-04-24T00:14:01;2.55;;;0.43;;
66542;SDS011;53395;37.360;-122.046;2023-04-24T00:16:27;3.75;;;0.40;;
66542;SDS011;53395;37.360;-122.046;2023-04-24T00:18:53;1.90;;;0.43;;
66542;SDS011;53395;37.360;-122.046;2023-04-24T00:21:19;2.47;;;0.38;;
66542;SDS011;53395;37.360;-122.046;2023-04-24T00:23:47;4.07;;;0.30;;
66542;SDS011;53395;37.360;-122.046;2023-04-24T00:28:38;1.58;;;0.30;;
66542;SDS011;53395;37.360;-122.046;2023-04-24T00:31:04;2.60;;;0.40;;
66542;SDS011;53395;37.360;-122.046;2023-04-24T00:33:30;1.77;;;0.40;;
66542;SDS011;53395;37.360;-122.046;2023-04-24T00:35:56;1.95;;;0.40;;
66542;SDS011;53395;37.360;-122.046;2023-04-24T00:38:22;4.50;;;0.75;;
66542;SDS011;53395;37.360;-122.046;2023-04-24T00:40:48;1.33;;;0.32;;
66542;SDS011;53395;37.360;-122.046;2023-04-24T00:43:15;3.97;;;0.30;;
66542;SDS011;53395;37.360;-122.046;2023-04-24T00:45:41;1.50;;;0.40;;
66542;SDS011;53395;37.360;-122.046;2023-04-24T00:48:07;1.42;;;0.43;;
66542;SDS011;53395;37.360;-122.046;2023-04-24T00:50:35;3.15;;;0.52;;
66542;SDS011;53395;37.360;-122.046;2023-04-24T00:53:01;1.48;;;0.50;;
66542;SDS011;53395;37.360;-122.046;2023-04-24T00:55:27;1.95;;;0.60;;
66542;SDS011;53395;37.360;-122.046;2023-04-24T00:57:52;2.72;;;0.52;;
66542;SDS011;53395;37.360;-122.046;2023-04-24T01:00:18;3.30;;;0.68;;
66542;SDS011;53395;37.360;-122.046;2023-04-24T01:02:44;3.28;;;0.65;;
66542;SDS011;53395;37.360;-122.046;2023-04-24T01:05:11;2.20;;;0.45;;
66542;SDS011;53395;37.360;-122.046;2023-04-24T01:07:44;2.88;;;0.60;;
66542;SDS011;53395;37.360;-122.046;2023-04-24T01:10:11;3.38;;;0.80;;
66542;SDS011;53395;37.360;-122.046;2023-04-24T01:12:37;6.50;;;0.80;;
66542;SDS011;53395;37.360;-122.046;2023-04-24T01:15:03;5.10;;;1.88;;
66542;SDS011;53395;37.360;-122.046;2023-04-24T01:17:29;4.43;;;0.88;;
66542;SDS011;53395;37.360;-122.046;2023-04-24T01:19:55;3.13;;;0.60;;
66542;SDS011;53395;37.360;-122.046;2023-04-24T01:22:22;3.47;;;0.75;;
66542;SDS011;53395;37.360;-122.046;2023-04-24T01:24:48;5.15;;;0.80;;
66542;SDS011;53395;37.360;-122.046;2023-04-24T01:27:14;2.50;;;0.60;;
66542;SDS011;53395;37.360;-122.046;2023-04-24T01:29:40;3.60;;;0.95;;
66542;SDS011;53395;37.360;-122.046;2023-04-24T01:32:06;5.18;;;0.70;;
66542;SDS011;53395;37.360;-122.046;2023-04-24T01:34:32;5.00;;;0.80;;
66542;SDS011;53395;37.360;-122.046;2023-04-24T01:36:58;2.97;;;0.70;;
66542;SDS011;53395;37.360;-122.046;2023-04-24T01:39:25;9.43;;;2.90;;
66542;SDS011;53395;37.360;-122.046;2023-04-24T01:41:54;4.70;;;1.00;;
66542;SDS011;53395;37.360;-122.046;2023-04-24T01:44:20;3.58;;;0.85;;
66542;SDS011;53395;37.360;-122.046;2023-04-24T01:46:46;4.15;;;0.60;;
66542;SDS011;53395;37.360;-122.046;2023-04-24T01:49:12;6.53;;;1.00;;
66542;SDS011;53395;37.360;-122.046;2023-04-24T01:51:38;4.55;;;1.10;;
66542;SDS011;53395;37.360;-122.046;2023-04-24T01:54:04;3.22;;;0.75;;
66542;SDS011;53395;37.360;-122.046;2023-04-24T01:56:30;4.63;;;0.73;;
66542;SDS011;53395;37.360;-122.046;2023-04-24T01:58:58;4.60;;;0.98;;
66542;SDS011;53395;37.360;-122.046;2023-04-24T02:01:25;2.03;;;0.52;;
66542;SDS011;53395;37.360;-122.046;2023-04-24T02:03:51;3.95;;;1.15;;
66542;SDS011;53395;37.360;-122.046;2023-04-24T02:06:16;5.38;;;1.00;;
66542;SDS011;53395;37.360;-122.046;2023-04-24T02:08:42;4.68;;;0.88;;
66542;SDS011;53395;37.360;-122.046;2023-04-24T02:11:08;7.00;;;0.90;;
66542;SDS011;53395;37.360;-122.046;2023-04-24T02:13:34;5.28;;;0.70;;
66542;SDS011;53395;37.360;-122.046;2023-04-24T02:16:00;3.47;;;0.70;;
66542;SDS011;53395;37.360;-122.046;2023-04-24T02:18:26;5.70;;;0.93;;
66542;SDS011;53395;37.360;-122.046;2023-04-24T02:20:52;2.10;;;0.60;;
66542;SDS011;53395;37.360;-122.046;2023-04-24T02:23:18;3.83;;;0.93;;
66542;SDS011;53395;37.360;-122.046;2023-04-24T02:25:44;4.60;;;1.05;;
66542;SDS011;53395;37.360;-122.046;2023-04-24T02:28:10;4.28;;;0.90;;
66542;SDS011;53395;37.360;-122.046;2023-04-24T02:30:36;8.07;;;0.90;;
66542;SDS011;53395;37.360;-122.046;2023-04-24T02:33:02;3.35;;;0.70;;
66542;SDS011;53395;37.360;-122.046;2023-04-24T02:35:28;4.10;;;0.98;;
66542;SDS011;53395;37.360;-122.046;2023-04-24T02:37:55;4.15;;;0.82;;
66542;SDS011;53395;37.360;-122.046;2023-04-24T02:40:20;7.05;;;0.85;;
66542;SDS011;53395;37.360;-122.046;2023-04-24T02:42:46;3.92;;;0.90;;
66542;SDS011;53395;37.360;-122.046;2023-04-24T02:45:12;3.15;;;0.88;;
66542;SDS011;53395;37.360;-122.046;2023-04-24T02:47:38;4.28;;;1.10;;
66542;SDS011;53395;37.360;-122.046;2023-04-24T02:50:04;5.85;;;1.13;;
66542;SDS011;53395;37.360;-122.046;2023-04-24T02:52:30;4.57;;;1.17;;
66542;SDS011;53395;37.360;-122.046;2023-04-24T02:54:56;4.15;;;0.80;;
66542;SDS011;53395;37.360;-122.046;2023-04-24T02:57:21;6.55;;;1.00;;
66542;SDS011;53395;37.360;-122.046;2023-04-24T02:59:47;5.18;;;1.00;;
66542;SDS011;53395;37.360;-122.046;2023-04-24T03:02:13;5.82;;;1.13;;
66542;SDS011;53395;37.360;-122.046;2023-04-24T03:04:39;6.97;;;1.27;;
66542;SDS011;53395;37.360;-122.046;2023-04-24T03:07:05;5.80;;;1.10;;
66542;SDS011;53395;37.360;-122.046;2023-04-24T03:09:31;5.85;;;1.10;;
66542;SDS011;53395;37.360;-122.046;2023-04-24T03:11:57;6.47;;;0.80;;
66542;SDS011;53395;37.360;-122.046;2023-04-24T03:16:48;3.47;;;0.82;;
66542;SDS011;53395;37.360;-122.046;2023-04-24T03:19:15;7.13;;;1.13;;
66542;SDS011;53395;37.360;-122.046;2023-04-24T03:21:41;5.28;;;1.00;;
66542;SDS011;53395;37.360;-122.046;2023-04-24T03:24:07;5.22;;;0.80;;
66542;SDS011;53395;37.360;-122.046;2023-04-24T03:26:34;4.28;;;1.08;;
66542;SDS011;53395;37.360;-122.046;2023-04-24T03:29:00;4.85;;;0.80;;
66542;SDS011;53395;37.360;-122.046;2023-04-24T03:31:26;6.53;;;0.93;;
66542;SDS011;53395;37.360;-122.046;2023-04-24T03:33:52;5.78;;;1.08;;
66542;SDS011;53395;37.360;-122.046;2023-04-24T03:36:18;8.68;;;1.13;;
66542;SDS011;53395;37.360;-122.046;2023-04-24T03:38:44;7.43;;;1.25;;
66542;SDS011;53395;37.360;-122.046;2023-04-24T03:41:10;8.40;;;1.88;;
66542;SDS011;53395;37.360;-122.046;2023-04-24T03:43:37;8.30;;;1.15;;
66542;SDS011;53395;37.360;-122.046;2023-04-24T03:46:03;8.38;;;1.42;;
66542;SDS011;53395;37.360;-122.046;2023-04-24T03:48:29;8.80;;;1.45;;
66542;SDS011;53395;37.360;-122.046;2023-04-24T03:50:55;6.18;;;1.58;;
66542;SDS011;53395;37.360;-122.046;2023-04-24T03:53:21;6.07;;;1.15;;
66542;SDS011;53395;37.360;-122.046;2023-04-24T03:55:47;9.30;;;1.98;;
66542;SDS011;53395;37.360;-122.046;2023-04-24T03:58:13;6.50;;;1.30;;
66542;SDS011;53395;37.360;-122.046;2023-04-24T04:00:43;8.52;;;1.55;;
66542;SDS011;53395;37.360;-122.046;2023-04-24T04:03:09;6.22;;;1.40;;
66542;SDS011;53395;37.360;-122.046;2023-04-24T04:05:35;8.07;;;1.65;;
66542;SDS011;53395;37.360;-122.046;2023-04-24T04:08:01;7.50;;;1.73;;
66542;SDS011;53395;37.360;-122.046;2023-04-24T04:10:27;9.32;;;1.92;;
66542;SDS011;53395;37.360;-122.046;2023-04-24T04:12:53;6.93;;;1.50;;
66542;SDS011;53395;37.360;-122.046;2023-04-24T04:15:19;11.65;;;1.83;;
66542;SDS011;53395;37.360;-122.046;2023-04-24T04:17:44;6.15;;;1.42;;
66542;SDS011;53395;37.360;-122.046;2023-04-24T04:20:11;7.18;;;1.52;;
66542;SDS011;53395;37.360;-122.046;2023-04-24T04:22:37;6.38;;;1.67;;
66542;SDS011;53395;37.360;-122.046;2023-04-24T04:25:03;9.95;;;1.45;;
66542;SDS011;53395;37.360;-122.046;2023-04-24T04:30:06;10.23;;;1.50;;
66542;SDS011;53395;37.360;-122.046;2023-04-24T04:32:32;6.20;;;1.90;;
66542;SDS011;53395;37.360;-122.046;2023-04-24T04:35:01;10.65;;;2.05;;
66542;SDS011;53395;37.360;-122.046;2023-04-24T04:37:30;8.10;;;1.40;;
66542;SDS011;53395;37.360;-122.046;2023-04-24T04:42:23;10.57;;;1.42;;
66542;SDS011;53395;37.360;-122.046;2023-04-24T04:44:49;11.30;;;1.77;;
66542;SDS011;53395;37.360;-122.046;2023-04-24T04:47:16;13.40;;;1.80;;
66542;SDS011;53395;37.360;-122.046;2023-04-24T04:49:42;12.45;;;1.70;;
66542;SDS011;53395;37.360;-122.046;2023-04-24T04:52:09;13.38;;;2.00;;
66542;SDS011;53395;37.360;-122.046;2023-04-24T04:54:35;11.35;;;2.17;;
66542;SDS011;53395;37.360;-122.046;2023-04-24T04:57:00;13.77;;;2.13;;
66542;SDS011;53395;37.360;-122.046;2023-04-24T04:59:27;9.52;;;2.03;;
66542;SDS011;53395;37.360;-122.046;2023-04-24T05:01:52;9.32;;;2.08;;
66542;SDS011;53395;37.360;-122.046;2023-04-24T05:04:18;8.07;;;2.00;;
66542;SDS011;53395;37.360;-122.046;2023-04-24T05:06:44;12.75;;;1.90;;
66542;SDS011;53395;37.360;-122.046;2023-04-24T05:09:10;11.63;;;1.80;;
66542;SDS011;53395;37.360;-122.046;2023-04-24T05:11:36;7.80;;;1.60;;
66542;SDS011;53395;37.360;-122.046;2023-04-24T05:14:02;10.70;;;2.15;;
66542;SDS011;53395;37.360;-122.046;2023-04-24T05:16:28;13.55;;;1.98;;
66542;SDS011;53395;37.360;-122.046;2023-04-24T05:18:54;9.05;;;1.92;;
66542;SDS011;53395;37.360;-122.046;2023-04-24T05:21:20;11.00;;;1.98;;
66542;SDS011;53395;37.360;-122.046;2023-04-24T05:23:46;11.98;;;2.25;;
66542;SDS011;53395;37.360;-122.046;2023-04-24T05:26:12;11.65;;;2.10;;
66542;SDS011;53395;37.360;-122.046;2023-04-24T05:28:38;10.85;;;2.20;;
66542;SDS011;53395;37.360;-122.046;2023-04-24T05:31:04;11.40;;;2.10;;
66542;SDS011;53395;37.360;-122.046;2023-04-24T05:33:30;9.80;;;1.90;;
66542;SDS011;53395;37.360;-122.046;2023-04-24T05:35:56;8.27;;;1.65;;
66542;SDS011;53395;37.360;-122.046;2023-04-24T05:38:23;8.13;;;1.77;;
66542;SDS011;53395;37.360;-122.046;2023-04-24T05:40:48;18.48;;;2.33;;
66542;SDS011;53395;37.360;-122.046;2023-04-24T05:43:17;10.32;;;2.00;;
66542;SDS011;53395;37.360;-122.046;2023-04-24T05:45:43;19.40;;;2.88;;
66542;SDS011;53395;37.360;-122.046;2023-04-24T05:48:09;7.60;;;1.88;;
66542;SDS011;53395;37.360;-122.046;2023-04-24T05:50:35;14.70;;;2.42;;
66542;SDS011;53395;37.360;-122.046;2023-04-24T05:53:00;12.98;;;2.58;;
66542;SDS011;53395;37.360;-122.046;2023-04-24T05:55:30;16.65;;;2.15;;
66542;SDS011;53395;37.360;-122.046;2023-04-24T05:57:56;14.40;;;2.65;;
66542;SDS011;53395;37.360;-122.046;2023-04-24T06:00:23;22.20;;;2.67;;
66542;SDS011;53395;37.360;-122.046;2023-04-24T06:05:14;17.88;;;2.65;;
66542;SDS011;53395;37.360;-122.046;2023-04-24T06:07:43;16.10;;;2.88;;
66542;SDS011;53395;37.360;-122.046;2023-04-24T06:10:09;17.63;;;3.00;;
66542;SDS011;53395;37.360;-122.046;2023-04-24T06:12:35;13.40;;;2.28;;
66542;SDS011;53395;37.360;-122.046;2023-04-24T06:15:02;19.70;;;2.50;;
66542;SDS011;53395;37.360;-122.046;2023-04-24T06:17:28;13.50;;;2.10;;
66542;SDS011;53395;37.360;-122.046;2023-04-24T06:19:53;12.80;;;2.72;;
66542;SDS011;53395;37.360;-122.046;2023-04-24T06:22:19;13.20;;;2.28;;
66542;SDS011;53395;37.360;-122.046;2023-04-24T06:24:45;20.67;;;2.75;;
66542;SDS011;53395;37.360;-122.046;2023-04-24T06:27:12;15.90;;;2.67;;
66542;SDS011;53395;37.360;-122.046;2023-04-24T06:29:38;15.98;;;2.33;;
66542;SDS011;53395;37.360;-122.046;2023-04-24T06:32:04;13.85;;;2.20;;
66542;SDS011;53395;37.360;-122.046;2023-04-24T06:34:30;13.32;;;2.40;;
66542;SDS011;53395;37.360;-122.046;2023-04-24T06:36:56;13.00;;;2.42;;
66542;SDS011;53395;37.360;-122.046;2023-04-24T06:39:22;14.57;;;2.42;;
66542;SDS011;53395;37.360;-122.046;2023-04-24T06:41:48;12.50;;;2.63;;
66542;SDS011;53395;37.360;-122.046;2023-04-24T06:44:13;24.00;;;3.45;;
66542;SDS011;53395;37.360;-122.046;2023-04-24T06:46:40;10.95;;;2.25;;
66542;SDS011;53395;37.360;-122.046;2023-04-24T06:49:06;25.10;;;3.60;;
66542;SDS011;53395;37.360;-122.046;2023-04-24T06:51:32;20.88;;;3.30;;
66542;SDS011;53395;37.360;-122.046;2023-04-24T06:53:58;19.10;;;3.20;;
66542;SDS011;53395;37.360;-122.046;2023-04-24T06:56:25;20.52;;;3.20;;
66542;SDS011;53395;37.360;-122.046;2023-04-24T06:58:51;21.98;;;3.30;;
66542;SDS011;53395;37.360;-122.046;2023-04-24T07:01:17;22.45;;;3.65;;
66542;SDS011;53395;37.360;-122.046;2023-04-24T07:03:43;21.35;;;3.17;;
66542;SDS011;53395;37.360;-122.046;2023-04-24T07:06:09;20.95;;;3.38;;
66542;SDS011;53395;37.360;-122.046;2023-04-24T07:08:36;22.92;;;3.75;;
66542;SDS011;53395;37.360;-122.046;2023-04-24T07:11:02;22.00;;;3.22;;
66542;SDS011;53395;37.360;-122.046;2023-04-24T07:13:28;20.83;;;3.15;;
66542;SDS011;53395;37.360;-122.046;2023-04-24T07:15:54;23.55;;;3.72;;
66542;SDS011;53395;37.360;-122.046;2023-04-24T07:20:46;21.40;;;2.55;;
66542;SDS011;53395;37.360;-122.046;2023-04-24T07:23:12;18.77;;;3.15;;
66542;SDS011;53395;37.360;-122.046;2023-04-24T07:25:38;17.77;;;3.25;;
66542;SDS011;53395;37.360;-122.046;2023-04-24T07:28:04;19.08;;;3.03;;
66542;SDS011;53395;37.360;-122.046;2023-04-24T07:30:30;17.23;;;2.78;;
66542;SDS011;53395;37.360;-122.046;2023-04-24T07:32:58;21.45;;;3.47;;
66542;SDS011;53395;37.360;-122.046;2023-04-24T07:35:24;21.38;;;2.92;;
66542;SDS011;53395;37.360;-122.046;2023-04-24T07:40:16;22.27;;;3.67;;
66542;SDS011;53395;37.360;-122.046;2023-04-24T07:42:42;21.80;;;2.75;;
66542;SDS011;53395;37.360;-122.046;2023-04-24T07:45:09;16.70;;;2.85;;
66542;SDS011;53395;37.360;-122.046;2023-04-24T07:47:34;23.15;;;3.17;;
66542;SDS011;53395;37.360;-122.046;2023-04-24T07:50:02;22.52;;;2.95;;
66542;SDS011;53395;37.360;-122.046;2023-04-24T07:52:28;22.60;;;2.95;;
66542;SDS011;53395;37.360;-122.046;2023-04-24T07:54:54;21.23;;;3.88;;
66542;SDS011;53395;37.360;-122.046;2023-04-24T07:57:26;19.77;;;3.30;;
66542;SDS011;53395;37.360;-122.046;2023-04-24T07:59:52;16.65;;;2.63;;
66542;SDS011;53395;37.360;-122.046;2023-04-24T08:02:18;20.38;;;4.00;;
66542;SDS011;53395;37.360;-122.046;2023-04-24T08:04:44;27.98;;;4.18;;
66542;SDS011;53395;37.360;-122.046;2023-04-24T08:07:10;22.90;;;3.50;;
66542;SDS011;53395;37.360;-122.046;2023-04-24T08:09:38;19.30;;;3.40;;
66542;SDS011;53395;37.360;-122.046;2023-04-24T08:12:04;18.75;;;3.72;;
66542;SDS011;53395;37.360;-122.046;2023-04-24T08:14:29;21.33;;;3.70;;
66542;SDS011;53395;37.360;-122.046;2023-04-24T08:16:55;25.52;;;3.47;;
66542;SDS011;53395;37.360;-122.046;2023-04-24T08:19:21;17.67;;;3.83;;
66542;SDS011;53395;37.360;-122.046;2023-04-24T08:21:47;14.95;;;2.92;;
66542;SDS011;53395;37.360;-122.046;2023-04-24T08:24:13;17.33;;;2.92;;
66542;SDS011;53395;37.360;-122.046;2023-04-24T08:26:39;21.88;;;3.40;;
66542;SDS011;53395;37.360;-122.046;2023-04-24T08:29:05;21.85;;;3.67;;
66542;SDS011;53395;37.360;-122.046;2023-04-24T08:31:32;19.65;;;3.10;;
66542;SDS011;53395;37.360;-122.046;2023-04-24T08:33:58;21.60;;;3.13;;
66542;SDS011;53395;37.360;-122.046;2023-04-24T08:36:25;19.60;;;3.25;;
66542;SDS011;53395;37.360;-122.046;2023-04-24T08:38:51;16.08;;;2.75;;
66542;SDS011;53395;37.360;-122.046;2023-04-24T08:41:17;16.50;;;3.25;;
66542;SDS011;53395;37.360;-122.046;2023-04-24T08:43:44;18.02;;;3.63;;
66542;SDS011;53395;37.360;-122.046;2023-04-24T08:46:12;20.48;;;3.38;;
66542;SDS011;53395;37.360;-122.046;2023-04-24T08:51:03;21.73;;;3.17;;
66542;SDS011;53395;37.360;-122.046;2023-04-24T08:53:32;18.60;;;3.50;;
66542;SDS011;53395;37.360;-122.046;2023-04-24T08:55:58;20.55;;;3.13;;
66542;SDS011;53395;37.360;-122.046;2023-04-24T08:58:27;17.88;;;3.78;;
66542;SDS011;53395;37.360;-122.046;2023-04-24T09:00:56;21.45;;;3.17;;
66542;SDS011;53395;37.360;-122.046;2023-04-24T09:03:22;23.50;;;3.47;;
66542;SDS011;53395;37.360;-122.046;2023-04-24T09:05:48;15.77;;;2.53;;
66542;SDS011;53395;37.360;-122.046;2023-04-24T09:08:18;18.80;;;2.80;;
66542;SDS011;53395;37.360;-122.046;2023-04-24T09:10:45;16.65;;;2.35;;
66542;SDS011;53395;37.360;-122.046;2023-04-24T09:13:11;17.20;;;2.92;;
66542;SDS011;53395;37.360;-122.046;2023-04-24T09:15:37;12.15;;;2.28;;
66542;SDS011;53395;37.360;-122.046;2023-04-24T09:18:04;11.98;;;1.63;;
66542;SDS011;53395;37.360;-122.046;2023-04-24T09:20:30;13.50;;;2.15;;
66542;SDS011;53395;37.360;-122.046;2023-04-24T09:22:57;9.80;;;1.83;;
66542;SDS011;53395;37.360;-122.046;2023-04-24T09:25:25;10.68;;;1.83;;
66542;SDS011;53395;37.360;-122.046;2023-04-24T09:27:57;12.77;;;2.20;;
66542;SDS011;53395;37.360;-122.046;2023-04-24T09:30:25;9.60;;;1.75;;
66542;SDS011;53395;37.360;-122.046;2023-04-24T09:33:09;12.02;;;2.00;;
66542;SDS011;53395;37.360;-122.046;2023-04-24T09:35:35;13.88;;;1.88;;
66542;SDS011;53395;37.360;-122.046;2023-04-24T09:38:00;9.45;;;1.92;;
66542;SDS011;53395;37.360;-122.046;2023-04-24T09:40:26;9.00;;;1.88;;
66542;SDS011;53395;37.360;-122.046;2023-04-24T09:42:53;17.05;;;2.40;;
66542;SDS011;53395;37.360;-122.046;2023-04-24T09:45:19;8.85;;;1.77;;
66542;SDS011;53395;37.360;-122.046;2023-04-24T09:47:45;11.95;;;1.90;;
66542;SDS011;53395;37.360;-122.046;2023-04-24T09:50:15;7.93;;;2.15;;
66542;SDS011;53395;37.360;-122.046;2023-04-24T09:52:45;6.45;;;1.52;;
66542;SDS011;53395;37.360;-122.046;2023-04-24T09:55:20;7.05;;;1.60;;
66542;SDS011;53395;37.360;-122.046;2023-04-24T09:57:49;9.50;;;1.67;;
66542;SDS011;53395;37.360;-122.046;2023-04-24T10:00:19;9.20;;;2.00;;
66542;SDS011;53395;37.360;-122.046;2023-04-24T10:02:49;7.78;;;1.70;;
66542;SDS011;53395;37.360;-122.046;2023-04-24T10:05:15;9.02;;;2.00;;
66542;SDS011;53395;37.360;-122.046;2023-04-24T10:07:41;14.13;;;2.60;;
66542;SDS011;53395;37.360;-122.046;2023-04-24T10:10:08;10.80;;;1.90;;
66542;SDS011;53395;37.360;-122.046;2023-04-24T10:12:34;10.70;;;1.80;;
66542;SDS011;53395;37.360;-122.046;2023-04-24T10:15:00;7.75;;;1.50;;
66542;SDS011;53395;37.360;-122.046;2023-04-24T10:17:27;11.25;;;1.60;;
66542;SDS011;53395;37.360;-122.046;2023-04-24T10:19:53;8.63;;;1.63;;
66542;SDS011;53395;37.360;-122.046;2023-04-24T10:22:20;7.57;;;1.40;;
66542;SDS011;53395;37.360;-122.046;2023-04-24T10:29:37;8.48;;;1.52;;
66542;SDS011;53395;37.360;-122.046;2023-04-24T10:32:06;7.38;;;1.48;;
66542;SDS011;53395;37.360;-122.046;2023-04-24T10:34:32;8.52;;;2.40;;
66542;SDS011;53395;37.360;-122.046;2023-04-24T10:36:58;6.85;;;1.52;;
66542;SDS011;53395;37.360;-122.046;2023-04-24T10:39:24;6.68;;;1.25;;
66542;SDS011;53395;37.360;-122.046;2023-04-24T10:41:50;9.32;;;1.88;;
66542;SDS011;53395;37.360;-122.046;2023-04-24T10:44:16;9.90;;;1.50;;
66542;SDS011;53395;37.360;-122.046;2023-04-24T10:46:43;9.73;;;1.58;;
66542;SDS011;53395;37.360;-122.046;2023-04-24T10:49:09;8.05;;;1.67;;
66542;SDS011;53395;37.360;-122.046;2023-04-24T10:51:48;6.60;;;1.60;;
66542;SDS011;53395;37.360;-122.046;2023-04-24T10:54:24;9.32;;;1.80;;
66542;SDS011;53395;37.360;-122.046;2023-04-24T10:56:51;5.85;;;1.25;;
66542;SDS011;53395;37.360;-122.046;2023-04-24T10:59:34;9.30;;;1.55;;
66542;SDS011;53395;37.360;-122.046;2023-04-24T11:02:00;8.05;;;1.48;;
66542;SDS011;53395;37.360;-122.046;2023-04-24T11:04:30;7.15;;;1.58;;
66542;SDS011;53395;37.360;-122.046;2023-04-24T11:06:57;13.23;;;1.88;;
66542;SDS011;53395;37.360;-122.046;2023-04-24T11:09:22;4.13;;;1.10;;
66542;SDS011;53395;37.360;-122.046;2023-04-24T11:11:51;9.40;;;1.67;;
66542;SDS011;53395;37.360;-122.046;2023-04-24T11:14:27;8.55;;;1.30;;
66542;SDS011;53395;37.360;-122.046;2023-04-24T11:16:54;6.55;;;1.50;;
66542;SDS011;53395;37.360;-122.046;2023-04-24T11:21:54;7.53;;;1.48;;
66542;SDS011;53395;37.360;-122.046;2023-04-24T11:24:27;9.02;;;1.55;;
66542;SDS011;53395;37.360;-122.046;2023-04-24T11:26:54;11.30;;;1.73;;
66542;SDS011;53395;37.360;-122.046;2023-04-24T11:29:21;12.40;;;1.73;;
66542;SDS011;53395;37.360;-122.046;2023-04-24T11:31:47;8.75;;;1.30;;
66542;SDS011;53395;37.360;-122.046;2023-04-24T11:34:16;8.90;;;2.03;;
66542;SDS011;53395;37.360;-122.046;2023-04-24T11:36:46;8.13;;;1.70;;
66542;SDS011;53395;37.360;-122.046;2023-04-24T11:39:13;8.90;;;1.73;;
66542;SDS011;53395;37.360;-122.046;2023-04-24T11:41:39;8.90;;;1.65;;
66542;SDS011;53395;37.360;-122.046;2023-04-24T11:44:08;10.98;;;1.88;;
66542;SDS011;53395;37.360;-122.046;2023-04-24T11:46:34;9.75;;;1.55;;
66542;SDS011;53395;37.360;-122.046;2023-04-24T11:49:00;10.40;;;2.13;;
66542;SDS011;53395;37.360;-122.046;2023-04-24T11:51:26;6.80;;;1.45;;
66542;SDS011;53395;37.360;-122.046;2023-04-24T11:53:53;11.00;;;1.60;;
66542;SDS011;53395;37.360;-122.046;2023-04-24T11:56:19;7.15;;;1.58;;
66542;SDS011;53395;37.360;-122.046;2023-04-24T11:58:45;10.00;;;1.90;;
66542;SDS011;53395;37.360;-122.046;2023-04-24T12:01:12;11.05;;;1.95;;
66542;SDS011;53395;37.360;-122.046;2023-04-24T12:03:38;8.50;;;1.75;;
66542;SDS011;53395;37.360;-122.046;2023-04-24T12:06:04;9.00;;;1.73;;
66542;SDS011;53395;37.360;-122.046;2023-04-24T12:08:31;7.20;;;1.50;;
66542;SDS011;53395;37.360;-122.046;2023-04-24T12:10:57;11.10;;;1.65;;
66542;SDS011;53395;37.360;-122.046;2023-04-24T12:18:15;6.82;;;1.60;;
66542;SDS011;53395;37.360;-122.046;2023-04-24T12:23:07;9.75;;;1.83;;
66542;SDS011;53395;37.360;-122.046;2023-04-24T12:25:33;7.22;;;1.80;;
66542;SDS011;53395;37.360;-122.046;2023-04-24T12:30:28;14.35;;;2.35;;
66542;SDS011;53395;37.360;-122.046;2023-04-24T12:32:56;8.20;;;1.35;;
66542;SDS011;53395;37.360;-122.046;2023-04-24T12:35:23;9.48;;;1.75;;
66542;SDS011;53395;37.360;-122.046;2023-04-24T12:37:49;7.72;;;1.75;;
66542;SDS011;53395;37.360;-122.046;2023-04-24T12:40:15;7.85;;;1.60;;
66542;SDS011;53395;37.360;-122.046;2023-04-24T12:42:42;8.48;;;1.60;;
66542;SDS011;53395;37.360;-122.046;2023-04-24T12:45:08;10.82;;;1.30;;
66542;SDS011;53395;37.360;-122.046;2023-04-24T12:47:34;6.53;;;1.35;;
66542;SDS011;53395;37.360;-122.046;2023-04-24T12:50:01;12.95;;;2.40;;
66542;SDS011;53395;37.360;-122.046;2023-04-24T12:52:28;6.78;;;1.55;;
66542;SDS011;53395;37.360;-122.046;2023-04-24T12:54:55;11.52;;;1.83;;
66542;SDS011;53395;37.360;-122.046;2023-04-24T12:57:23;8.55;;;1.73;;
66542;SDS011;53395;37.360;-122.046;2023-04-24T12:59:49;7.07;;;1.40;;
66542;SDS011;53395;37.360;-122.046;2023-04-24T13:02:16;12.52;;;1.92;;
66542;SDS011;53395;37.360;-122.046;2023-04-24T13:04:45;5.47;;;1.05;;
66542;SDS011;53395;37.360;-122.046;2023-04-24T13:07:12;9.20;;;1.50;;
66542;SDS011;53395;37.360;-122.046;2023-04-24T13:09:39;8.77;;;1.63;;
66542;SDS011;53395;37.360;-122.046;2023-04-24T13:12:05;8.00;;;1.70;;
66542;SDS011;53395;37.360;-122.046;2023-04-24T13:14:31;6.30;;;1.40;;
66542;SDS011;53395;37.360;-122.046;2023-04-24T13:16:57;5.28;;;1.35;;
66542;SDS011;53395;37.360;-122.046;2023-04-24T13:19:26;11.55;;;1.70;;
66542;SDS011;53395;37.360;-122.046;2023-04-24T13:21:53;12.55;;;2.00;;
66542;SDS011;53395;37.360;-122.046;2023-04-24T13:24:20;5.25;;;1.50;;
66542;SDS011;53395;37.360;-122.046;2023-04-24T13:26:46;8.70;;;1.55;;
66542;SDS011;53395;37.360;-122.046;2023-04-24T13:29:12;10.32;;;1.52;;
66542;SDS011;53395;37.360;-122.046;2023-04-24T13:31:37;9.93;;;1.55;;
66542;SDS011;53395;37.360;-122.046;2023-04-24T13:34:03;7.30;;;1.65;;
66542;SDS011;53395;37.360;-122.046;2023-04-24T13:36:29;6.43;;;1.40;;
66542;SDS011;53395;37.360;-122.046;2023-04-24T13:38:56;7.07;;;1.33;;
66542;SDS011;53395;37.360;-122.046;2023-04-24T13:41:22;5.38;;;1.50;;
66542;SDS011;53395;37.360;-122.046;2023-04-24T13:43:48;11.18;;;1.67;;
66542;SDS011;53395;37.360;-122.046;2023-04-24T13:46:14;9.80;;;1.60;;
66542;SDS011;53395;37.360;-122.046;2023-04-24T13:48:40;8.15;;;1.23;;
66542;SDS011;53395;37.360;-122.046;2023-04-24T13:51:06;9.82;;;1.60;;
66542;SDS011;53395;37.360;-122.046;2023-04-24T13:53:31;6.10;;;1.52;;
66542;SDS011;53395;37.360;-122.046;2023-04-24T13:56:01;11.20;;;1.63;;
66542;SDS011;53395;37.360;-122.046;2023-04-24T13:58:27;9.23;;;1.67;;
66542;SDS011;53395;37.360;-122.046;2023-04-24T14:00:53;9.25;;;2.15;;
66542;SDS011;53395;37.360;-122.046;2023-04-24T14:03:19;12.77;;;1.60;;
66542;SDS011;53395;37.360;-122.046;2023-04-24T14:05:45;8.85;;;1.52;;
66542;SDS011;53395;37.360;-122.046;2023-04-24T14:08:10;9.02;;;2.05;;
66542;SDS011;53395;37.360;-122.046;2023-04-24T14:10:37;12.10;;;1.90;;
66542;SDS011;53395;37.360;-122.046;2023-04-24T14:13:02;13.77;;;2.53;;
66542;SDS011;53395;37.360;-122.046;2023-04-24T14:15:28;12.77;;;2.80;;
66542;SDS011;53395;37.360;-122.046;2023-04-24T14:17:54;13.48;;;2.05;;
66542;SDS011;53395;37.360;-122.046;2023-04-24T14:20:20;12.30;;;1.85;;
66542;SDS011;53395;37.360;-122.046;2023-04-24T14:22:46;11.80;;;1.65;;
66542;SDS011;53395;37.360;-122.046;2023-04-24T14:25:12;14.88;;;2.33;;
66542;SDS011;53395;37.360;-122.046;2023-04-24T14:27:38;13.32;;;2.05;;
66542;SDS011;53395;37.360;-122.046;2023-04-24T14:30:05;10.23;;;1.80;;
66542;SDS011;53395;37.360;-122.046;2023-04-24T14:32:31;17.48;;;2.33;;
66542;SDS011;53395;37.360;-122.046;2023-04-24T14:34:57;9.55;;;1.70;;
66542;SDS011;53395;37.360;-122.046;2023-04-24T14:37:23;12.68;;;2.05;;